createdAt,value
2022-10-28T00:00:46.336Z,16.34
2022-10-28T00:01:46.692Z,16.35
2022-10-28T00:02:46.421Z,16.33
2022-10-28T00:03:46.305Z,16.34
2022-10-28T00:04:46.296Z,16.31
2022-10-28T00:05:46.290Z,16.31
2022-10-28T00:06:46.265Z,16.31
2022-10-28T00:07:46.252Z,16.31
2022-10-28T00:08:46.564Z,16.33
2022-10-28T00:09:46.243Z,16.31
2022-10-28T00:10:46.224Z,16.30
2022-10-28T00:11:46.210Z,16.27
2022-10-28T00:12:46.211Z,16.25
2022-10-28T00:13:46.215Z,16.25
2022-10-28T00:14:46.213Z,16.23
2022-10-28T00:15:46.446Z,16.23
2022-10-28T00:16:46.169Z,16.23
2022-10-28T00:17:46.160Z,16.22
2022-10-28T00:18:46.142Z,16.20
2022-10-28T00:19:46.246Z,16.22
2022-10-28T00:20:46.236Z,16.18
2022-10-28T00:21:46.224Z,16.18
2022-10-28T00:22:46.473Z,16.16
2022-10-28T00:23:46.169Z,16.16
2022-10-28T00:24:46.152Z,16.16
2022-10-28T00:25:46.150Z,16.15
2022-10-28T00:26:46.193Z,16.16
2022-10-28T00:27:46.165Z,16.15
2022-10-28T00:28:46.144Z,16.15
2022-10-28T00:29:46.308Z,16.15
2022-10-28T00:30:46.017Z,16.16
2022-10-28T00:31:46.014Z,16.16
2022-10-28T00:32:46.034Z,16.15
2022-10-28T00:33:45.975Z,16.15
2022-10-28T00:34:45.964Z,16.14
2022-10-28T00:35:45.958Z,16.15
2022-10-28T00:36:45.941Z,16.15
2022-10-28T00:37:45.937Z,16.15
2022-10-28T00:38:45.953Z,16.15
2022-10-28T00:39:45.914Z,16.16
2022-10-28T00:40:45.920Z,16.14
2022-10-28T00:41:45.888Z,16.15
2022-10-28T00:42:46.162Z,16.14
2022-10-28T00:43:45.869Z,16.14
2022-10-28T00:44:45.874Z,16.15
2022-10-28T00:45:45.846Z,16.15
2022-10-28T00:46:45.844Z,16.15
2022-10-28T00:47:45.842Z,16.15
2022-10-28T00:48:45.806Z,16.15
2022-10-28T00:49:46.102Z,16.15
2022-10-28T00:50:45.830Z,16.14
2022-10-28T00:51:45.787Z,16.16
2022-10-28T00:52:45.774Z,16.14
2022-10-28T00:53:45.768Z,16.14
2022-10-28T00:54:45.744Z,16.15
2022-10-28T00:55:45.744Z,16.14
2022-10-28T00:56:45.753Z,16.12
2022-10-28T00:57:45.731Z,16.12
2022-10-28T00:58:45.700Z,16.09
2022-10-28T00:59:45.705Z,16.07
2022-10-28T01:00:45.679Z,16.06
2022-10-28T01:01:45.809Z,16.07
2022-10-28T01:02:46.051Z,16.06
2022-10-28T01:03:45.652Z,16.06
2022-10-28T01:04:45.643Z,16.07
2022-10-28T01:05:45.632Z,16.04
2022-10-28T01:06:45.611Z,16.06
2022-10-28T01:07:45.606Z,16.06
2022-10-28T01:08:45.634Z,16.04
2022-10-28T01:09:45.601Z,16.03
2022-10-28T01:10:45.567Z,16.03
2022-10-28T01:11:45.574Z,16.03
2022-10-28T01:12:45.549Z,16.03
2022-10-28T01:13:45.577Z,16.03
2022-10-28T01:14:45.838Z,16.04
2022-10-28T01:15:45.555Z,16.04
2022-10-28T01:16:45.506Z,16.03
2022-10-28T01:17:45.505Z,16.03
2022-10-28T01:18:45.487Z,16.00
2022-10-28T01:19:45.479Z,16.04
2022-10-28T01:20:48.339Z,16.03
2022-10-28T01:21:45.456Z,16.01
2022-10-28T01:22:45.443Z,16.01
2022-10-28T01:23:45.438Z,16.00
2022-10-28T01:24:45.419Z,16.01
2022-10-28T01:25:45.413Z,16.01
2022-10-28T01:26:45.785Z,16.01
2022-10-28T01:27:45.397Z,16.03
2022-10-28T01:28:45.386Z,16.03
2022-10-28T01:29:45.375Z,16.04
2022-10-28T01:30:45.353Z,16.03
2022-10-28T01:31:45.353Z,16.03
2022-10-28T01:32:45.364Z,16.03
2022-10-28T01:33:45.622Z,16.03
2022-10-28T01:34:45.322Z,16.00
2022-10-28T01:35:45.305Z,16.00
2022-10-28T01:36:45.289Z,16.00
2022-10-28T01:37:45.288Z,16.00
2022-10-28T01:38:45.305Z,16.00
2022-10-28T01:39:45.261Z,15.99
2022-10-28T01:40:45.248Z,15.97
2022-10-28T01:41:45.241Z,15.97
2022-10-28T01:42:45.230Z,15.96
2022-10-28T01:43:45.234Z,15.97
2022-10-28T01:44:45.241Z,15.96
2022-10-28T01:45:45.200Z,15.96
2022-10-28T01:46:45.500Z,15.94
2022-10-28T01:47:45.186Z,15.96
2022-10-28T01:48:45.178Z,15.96
2022-10-28T01:49:45.182Z,15.94
2022-10-28T01:50:45.170Z,15.94
2022-10-28T01:51:45.134Z,15.94
2022-10-28T01:52:45.119Z,15.94
2022-10-28T01:53:45.146Z,15.94
2022-10-28T01:54:45.111Z,15.93
2022-10-28T01:55:45.109Z,15.93
2022-10-28T01:56:45.104Z,15.94
2022-10-28T01:57:45.073Z,15.94
2022-10-28T01:58:45.055Z,15.94
2022-10-28T01:59:45.332Z,15.94
2022-10-28T02:00:45.275Z,15.96
2022-10-28T02:01:45.309Z,15.93
2022-10-28T02:02:45.047Z,15.93
2022-10-28T02:03:45.004Z,15.92
2022-10-28T02:04:44.996Z,15.93
2022-10-28T02:05:44.981Z,15.93
2022-10-28T02:06:44.971Z,15.93
2022-10-28T02:07:44.965Z,15.92
2022-10-28T02:08:44.981Z,15.92
2022-10-28T02:09:44.955Z,15.93
2022-10-28T02:10:44.928Z,15.93
2022-10-28T02:11:45.203Z,15.93
2022-10-28T02:12:44.910Z,15.93
2022-10-28T02:13:44.906Z,15.94
2022-10-28T02:14:44.925Z,15.92
2022-10-28T02:15:44.890Z,15.89
2022-10-28T02:16:44.861Z,15.92
2022-10-28T02:17:44.858Z,15.89
2022-10-28T02:18:44.841Z,15.89
2022-10-28T02:19:44.839Z,15.88
2022-10-28T02:20:44.857Z,15.88
2022-10-28T02:21:44.811Z,15.88
2022-10-28T02:22:44.796Z,15.88
2022-10-28T02:23:45.073Z,15.88
2022-10-28T02:24:44.773Z,15.88
2022-10-28T02:25:44.816Z,15.88
2022-10-28T02:26:44.800Z,15.85
2022-10-28T02:27:44.754Z,15.85
2022-10-28T02:28:44.733Z,15.84
2022-10-28T02:29:44.725Z,15.84
2022-10-28T02:30:45.002Z,15.82
2022-10-28T02:31:44.716Z,15.84
2022-10-28T02:32:44.718Z,15.79
2022-10-28T02:33:44.690Z,15.81
2022-10-28T02:34:44.675Z,15.81
2022-10-28T02:35:44.673Z,15.81
2022-10-28T02:36:44.643Z,15.79
2022-10-28T02:37:44.928Z,15.78
2022-10-28T02:38:44.677Z,15.78
2022-10-28T02:39:44.619Z,15.76
2022-10-28T02:40:44.647Z,15.78
2022-10-28T02:41:44.604Z,15.78
2022-10-28T02:42:44.586Z,15.76
2022-10-28T02:43:44.596Z,15.79
2022-10-28T02:44:44.886Z,15.78
2022-10-28T02:45:44.587Z,15.79
2022-10-28T02:46:44.545Z,15.79
2022-10-28T02:47:44.568Z,15.81
2022-10-28T02:48:44.524Z,15.81
2022-10-28T02:49:44.510Z,15.81
2022-10-28T02:50:44.527Z,15.82
2022-10-28T02:51:44.485Z,15.84
2022-10-28T02:52:44.507Z,15.84
2022-10-28T02:53:44.758Z,15.85
2022-10-28T02:54:44.455Z,15.85
2022-10-28T02:55:44.440Z,15.85
2022-10-28T02:56:44.456Z,15.85
2022-10-28T02:57:44.427Z,15.86
2022-10-28T02:58:44.418Z,15.84
2022-10-28T02:59:44.404Z,15.85
2022-10-28T03:00:44.476Z,15.85
2022-10-28T03:01:44.479Z,15.85
2022-10-28T03:02:44.395Z,15.84
2022-10-28T03:03:44.368Z,15.82
2022-10-28T03:04:44.344Z,15.84
2022-10-28T03:05:44.631Z,15.85
2022-10-28T03:06:44.332Z,15.85
2022-10-28T03:07:44.324Z,15.88
2022-10-28T03:08:44.341Z,15.85
2022-10-28T03:09:44.295Z,15.85
2022-10-28T03:10:44.315Z,15.85
2022-10-28T03:11:44.301Z,15.85
2022-10-28T03:12:44.573Z,15.82
2022-10-28T03:13:44.256Z,15.81
2022-10-28T03:14:44.282Z,15.78
2022-10-28T03:15:44.242Z,15.75
2022-10-28T03:16:44.219Z,15.72
2022-10-28T03:17:44.217Z,15.68
2022-10-28T03:18:44.202Z,15.66
2022-10-28T03:19:44.198Z,15.66
2022-10-28T03:20:44.216Z,15.64
2022-10-28T03:21:44.187Z,15.63
2022-10-28T03:22:44.208Z,15.61
2022-10-28T03:23:44.150Z,15.60
2022-10-28T03:24:44.151Z,15.59
2022-10-28T03:25:44.404Z,15.56
2022-10-28T03:26:44.144Z,15.57
2022-10-28T03:27:44.100Z,15.54
2022-10-28T03:28:44.127Z,15.56
2022-10-28T03:29:45.975Z,15.56
2022-10-28T03:30:44.083Z,15.57
2022-10-28T03:31:44.087Z,15.59
2022-10-28T03:32:44.367Z,15.60
2022-10-28T03:33:44.036Z,15.60
2022-10-28T03:34:44.056Z,15.59
2022-10-28T03:35:44.018Z,15.59
2022-10-28T03:36:44.026Z,15.59
2022-10-28T03:37:44.010Z,15.59
2022-10-28T03:38:44.027Z,15.57
2022-10-28T03:39:44.270Z,15.57
2022-10-28T03:40:43.995Z,15.60
2022-10-28T03:41:43.965Z,15.59
2022-10-28T03:42:43.954Z,15.60
2022-10-28T03:43:43.946Z,15.59
2022-10-28T03:44:43.987Z,15.60
2022-10-28T03:45:43.919Z,15.60
2022-10-28T03:46:44.205Z,15.61
2022-10-28T03:47:43.886Z,15.61
2022-10-28T03:48:43.905Z,15.63
2022-10-28T03:49:43.878Z,15.61
2022-10-28T03:50:43.925Z,15.60
2022-10-28T03:51:43.891Z,15.61
2022-10-28T03:52:43.842Z,15.61
2022-10-28T03:53:44.115Z,15.61
2022-10-28T03:54:43.839Z,15.59
2022-10-28T03:55:43.816Z,15.59
2022-10-28T03:56:43.832Z,15.59
2022-10-28T03:57:43.780Z,15.59
2022-10-28T03:58:43.872Z,15.57
2022-10-28T03:59:43.762Z,15.57
2022-10-28T04:00:43.757Z,15.56
2022-10-28T04:01:43.864Z,15.54
2022-10-28T04:02:43.808Z,15.49
2022-10-28T04:03:43.801Z,15.46
2022-10-28T04:04:43.744Z,15.43
2022-10-28T04:05:43.695Z,15.41
2022-10-28T04:06:43.998Z,15.39
2022-10-28T04:07:43.701Z,15.35
2022-10-28T04:08:43.725Z,15.30
2022-10-28T04:09:43.662Z,15.24
2022-10-28T04:10:47.122Z,15.20
2022-10-28T04:11:43.639Z,15.15
2022-10-28T04:12:43.638Z,15.12
2022-10-28T04:13:43.664Z,15.05
2022-10-28T04:14:43.635Z,15.01
2022-10-28T04:15:43.607Z,14.94
2022-10-28T04:16:43.597Z,14.91
2022-10-28T04:17:43.573Z,14.84
2022-10-28T04:18:43.855Z,14.83
2022-10-28T04:19:43.555Z,14.78
2022-10-28T04:20:43.600Z,14.74
2022-10-28T04:21:43.528Z,14.69
2022-10-28T04:22:43.521Z,14.67
2022-10-28T04:23:43.521Z,14.64
2022-10-28T04:24:43.522Z,14.61
2022-10-28T04:25:43.518Z,14.57
2022-10-28T04:26:43.526Z,14.52
2022-10-28T04:27:43.480Z,14.52
2022-10-28T04:28:43.483Z,14.49
2022-10-28T04:29:43.447Z,14.46
2022-10-28T04:30:43.731Z,14.42
2022-10-28T04:31:43.433Z,14.42
2022-10-28T04:32:43.466Z,14.43
2022-10-28T04:33:43.415Z,14.39
2022-10-28T04:34:43.396Z,14.42
2022-10-28T04:35:43.378Z,14.42
2022-10-28T04:36:43.389Z,14.38
2022-10-28T04:37:43.639Z,14.42
2022-10-28T04:38:43.399Z,14.38
2022-10-28T04:39:43.365Z,14.38
2022-10-28T04:40:43.342Z,14.38
2022-10-28T04:41:43.329Z,14.37
2022-10-28T04:42:43.321Z,14.35
2022-10-28T04:43:43.293Z,14.35
2022-10-28T04:44:43.614Z,14.34
2022-10-28T04:45:43.292Z,14.32
2022-10-28T04:46:43.284Z,14.31
2022-10-28T04:47:43.260Z,14.28
2022-10-28T04:48:43.249Z,14.28
2022-10-28T04:49:43.243Z,14.31
2022-10-28T04:50:43.304Z,14.32
2022-10-28T04:51:43.285Z,14.29
2022-10-28T04:52:43.204Z,14.28
2022-10-28T04:53:43.197Z,14.25
2022-10-28T04:54:43.192Z,14.24
2022-10-28T04:55:43.172Z,14.17
2022-10-28T04:56:43.188Z,14.17
2022-10-28T04:57:43.448Z,14.14
2022-10-28T04:58:43.134Z,14.10
2022-10-28T04:59:43.139Z,14.09
2022-10-28T05:00:43.140Z,14.04
2022-10-28T05:01:43.198Z,14.02
2022-10-28T05:02:46.013Z,14.01
2022-10-28T05:03:43.082Z,13.98
2022-10-28T05:04:43.079Z,13.95
2022-10-28T05:05:43.901Z,13.92
2022-10-28T05:06:43.056Z,13.89
2022-10-28T05:07:43.056Z,13.88
2022-10-28T05:08:43.078Z,13.84
2022-10-28T05:09:43.046Z,13.81
2022-10-28T05:10:43.290Z,13.80
2022-10-28T05:11:42.999Z,13.76
2022-10-28T05:12:42.989Z,13.74
2022-10-28T05:13:42.975Z,13.74
2022-10-28T05:14:42.995Z,13.70
2022-10-28T05:15:42.968Z,13.69
2022-10-28T05:16:42.951Z,13.67
2022-10-28T05:17:43.225Z,13.65
2022-10-28T05:19:42.913Z,13.62
2022-10-28T05:20:42.956Z,13.63
2022-10-28T05:21:42.889Z,13.62
2022-10-28T05:22:42.900Z,13.61
2022-10-28T05:23:42.876Z,13.61
2022-10-28T05:24:42.876Z,13.59
2022-10-28T05:25:42.848Z,13.58
2022-10-28T05:26:42.887Z,13.56
2022-10-28T05:27:42.829Z,13.55
2022-10-28T05:28:42.817Z,13.55
2022-10-28T05:29:43.120Z,13.51
2022-10-28T05:30:42.868Z,13.51
2022-10-28T05:31:42.781Z,13.49
2022-10-28T05:32:42.854Z,13.49
2022-10-28T05:33:42.824Z,13.47
2022-10-28T05:34:42.750Z,13.46
2022-10-28T05:35:42.738Z,13.46
2022-10-28T05:36:42.743Z,13.41
2022-10-28T05:37:42.737Z,13.40
2022-10-28T05:38:42.809Z,13.40
2022-10-28T05:39:42.729Z,13.37
2022-10-28T05:40:42.709Z,13.37
2022-10-28T05:41:42.963Z,13.36
2022-10-28T05:42:42.673Z,13.37
2022-10-28T05:43:42.699Z,13.33
2022-10-28T05:44:42.721Z,13.32
2022-10-28T05:45:42.658Z,13.36
2022-10-28T05:46:42.651Z,13.36
2022-10-28T05:47:42.639Z,13.38
2022-10-28T05:48:42.948Z,13.38
2022-10-28T05:49:42.598Z,13.41
2022-10-28T05:50:42.625Z,13.44
2022-10-28T05:51:42.571Z,13.46
2022-10-28T05:52:42.571Z,13.51
2022-10-28T05:53:42.552Z,13.56
2022-10-28T05:54:42.539Z,13.62
2022-10-28T05:55:46.758Z,13.70
2022-10-28T05:56:42.585Z,13.87
2022-10-28T05:57:42.517Z,13.94
2022-10-28T05:58:42.527Z,14.01
2022-10-28T05:59:42.483Z,14.04
2022-10-28T06:00:42.493Z,14.02
2022-10-28T06:01:42.525Z,14.02
2022-10-28T06:02:42.489Z,13.99
2022-10-28T06:03:42.625Z,13.98
2022-10-28T06:04:42.448Z,13.96
2022-10-28T06:05:42.425Z,13.95
2022-10-28T06:06:42.428Z,13.94
2022-10-28T06:07:42.403Z,13.95
2022-10-28T06:08:42.722Z,13.95
2022-10-28T06:09:42.398Z,13.99
2022-10-28T06:10:42.393Z,14.06
2022-10-28T06:11:40.859Z,14.06
2022-10-28T06:12:40.820Z,14.16
2022-10-28T06:13:40.805Z,14.29
2022-10-28T06:14:40.868Z,14.37
2022-10-28T06:15:41.060Z,14.44
2022-10-28T06:16:40.775Z,14.47
2022-10-28T06:17:40.768Z,14.46
2022-10-28T06:18:40.756Z,14.43
2022-10-28T06:19:40.748Z,14.39
2022-10-28T06:20:40.789Z,14.38
2022-10-28T06:21:40.747Z,14.46
2022-10-28T06:22:41.041Z,14.52
2022-10-28T06:23:40.749Z,14.68
2022-10-28T06:24:40.705Z,14.75
2022-10-28T06:25:40.687Z,14.83
2022-10-28T06:26:40.765Z,14.84
2022-10-28T06:27:40.663Z,14.88
2022-10-28T06:28:40.675Z,14.94
2022-10-28T06:29:40.937Z,15.02
2022-10-28T06:30:40.648Z,15.09
2022-10-28T06:31:40.633Z,15.17
2022-10-28T06:32:40.658Z,15.24
2022-10-28T06:33:40.608Z,15.35
2022-10-28T06:34:40.605Z,15.41
2022-10-28T06:35:40.587Z,15.46
2022-10-28T06:36:40.880Z,15.46
2022-10-28T06:37:40.583Z,15.48
2022-10-28T06:38:40.609Z,15.49
2022-10-28T06:39:40.558Z,15.52
2022-10-28T06:40:40.540Z,15.56
2022-10-28T06:41:40.545Z,15.57
2022-10-28T06:42:40.547Z,15.64
2022-10-28T06:43:40.804Z,15.70
2022-10-28T06:44:40.536Z,15.84
2022-10-28T06:45:40.508Z,15.97
2022-10-28T06:46:41.993Z,16.09
2022-10-28T06:47:41.986Z,16.18
2022-10-28T06:48:41.979Z,16.33
2022-10-28T06:49:41.974Z,16.38
2022-10-28T06:50:42.317Z,16.45
2022-10-28T06:51:41.952Z,16.53
2022-10-28T06:52:41.989Z,16.60
2022-10-28T06:53:41.924Z,16.63
2022-10-28T06:54:41.940Z,16.68
2022-10-28T06:55:41.936Z,16.73
2022-10-28T06:56:41.956Z,16.78
2022-10-28T06:57:41.920Z,16.85
2022-10-28T06:58:41.917Z,16.89
2022-10-28T06:59:41.932Z,16.95
2022-10-28T07:00:41.901Z,16.99
2022-10-28T07:01:42.086Z,17.03
2022-10-28T07:02:45.080Z,17.08
2022-10-28T07:03:42.110Z,17.14
2022-10-28T07:04:41.831Z,17.18
2022-10-28T07:05:41.821Z,17.28
2022-10-28T07:06:41.838Z,17.36
2022-10-28T07:07:41.800Z,17.47
2022-10-28T07:08:41.824Z,17.54
2022-10-28T07:09:41.770Z,17.63
2022-10-28T07:10:41.794Z,17.64
2022-10-28T07:11:41.834Z,17.64
2022-10-28T07:12:41.754Z,17.71
2022-10-28T07:13:43.356Z,17.69
2022-10-28T07:14:41.768Z,17.71
2022-10-28T07:15:41.724Z,17.78
2022-10-28T07:16:41.989Z,17.84
2022-10-28T07:17:41.689Z,17.91
2022-10-28T07:18:41.688Z,17.99
2022-10-28T07:19:41.702Z,18.06
2022-10-28T07:20:41.724Z,18.09
2022-10-28T07:21:41.666Z,18.10
2022-10-28T07:22:41.654Z,18.09
2022-10-28T07:23:41.637Z,18.06
2022-10-28T07:24:41.633Z,18.03
2022-10-28T07:25:41.659Z,18.03
2022-10-28T07:26:41.676Z,18.04
2022-10-28T07:27:41.602Z,18.04
2022-10-28T07:28:41.884Z,18.04
2022-10-28T07:29:41.593Z,18.13
2022-10-28T07:30:41.662Z,18.21
2022-10-28T07:31:41.562Z,18.36
2022-10-28T07:32:41.599Z,18.40
2022-10-28T07:33:41.551Z,18.43
2022-10-28T07:34:41.563Z,18.46
2022-10-28T07:35:42.491Z,18.55
2022-10-28T07:36:41.509Z,18.68
2022-10-28T07:37:41.509Z,18.80
2022-10-28T07:38:41.532Z,18.95
2022-10-28T07:39:41.504Z,19.14
2022-10-28T07:40:41.797Z,19.35
2022-10-28T07:41:41.467Z,19.39
2022-10-28T07:42:41.470Z,19.43
2022-10-28T07:43:41.450Z,19.50
2022-10-28T07:44:41.465Z,19.57
2022-10-28T07:45:41.433Z,19.54
2022-10-28T07:46:41.419Z,19.60
2022-10-28T07:47:41.395Z,19.75
2022-10-28T07:48:42.080Z,19.88
2022-10-28T07:49:41.412Z,19.98
2022-10-28T07:50:41.432Z,20.00
2022-10-28T07:51:41.360Z,19.98
2022-10-28T07:52:41.363Z,20.05
2022-10-28T07:53:41.615Z,20.06
2022-10-28T07:54:41.340Z,20.03
2022-10-28T07:55:41.325Z,19.98
2022-10-28T07:56:41.353Z,19.94
2022-10-28T07:57:41.301Z,19.88
2022-10-28T07:58:41.277Z,19.93
2022-10-28T07:59:41.275Z,19.97
2022-10-28T08:00:41.285Z,20.12
2022-10-28T08:01:41.370Z,20.20
2022-10-28T08:02:41.289Z,20.35
2022-10-28T08:03:41.223Z,20.46
2022-10-28T08:04:41.207Z,20.46
2022-10-28T08:05:41.207Z,20.41
2022-10-28T08:06:41.208Z,20.49
2022-10-28T08:07:41.175Z,20.59
2022-10-28T08:08:41.201Z,20.68
2022-10-28T08:09:41.165Z,20.62
2022-10-28T08:10:41.130Z,20.53
2022-10-28T08:11:41.141Z,20.53
2022-10-28T08:12:41.387Z,20.49
2022-10-28T08:13:41.108Z,20.38
2022-10-28T08:14:41.125Z,20.27
2022-10-28T08:15:41.071Z,20.21
2022-10-28T08:16:41.075Z,20.21
2022-10-28T08:17:41.068Z,20.23
2022-10-28T08:18:41.034Z,20.31
2022-10-28T08:19:41.016Z,20.39
2022-10-28T08:20:41.192Z,20.33
2022-10-28T08:21:41.021Z,20.35
2022-10-28T08:22:40.992Z,20.34
2022-10-28T08:23:41.025Z,20.34
2022-10-28T08:24:40.988Z,20.27
2022-10-28T08:25:40.974Z,20.33
2022-10-28T08:26:40.985Z,20.30
2022-10-28T08:27:40.940Z,20.31
2022-10-28T08:28:41.000Z,20.39
2022-10-28T08:29:40.931Z,20.46
2022-10-28T08:30:56.764Z,20.53
2022-10-28T08:31:40.914Z,20.61
2022-10-28T08:32:40.913Z,20.59
2022-10-28T08:33:40.917Z,20.58
2022-10-28T08:34:43.494Z,20.59
2022-10-28T08:35:40.869Z,20.50
2022-10-28T08:36:40.907Z,20.50
2022-10-28T08:37:41.134Z,20.41
2022-10-28T08:38:45.303Z,20.41
2022-10-28T08:39:40.871Z,20.42
2022-10-28T08:40:40.812Z,20.51
2022-10-28T08:41:40.796Z,20.50
2022-10-28T08:42:40.800Z,20.54
2022-10-28T08:43:56.709Z,20.66
2022-10-28T08:44:40.844Z,20.71
2022-10-28T08:45:40.795Z,20.65
2022-10-28T08:46:40.773Z,20.65
2022-10-28T08:47:40.784Z,20.71
2022-10-28T08:48:40.817Z,20.76
2022-10-28T08:49:42.478Z,20.79
2022-10-28T08:50:40.737Z,20.77
2022-10-28T08:51:40.720Z,20.71
2022-10-28T08:52:40.679Z,20.83
2022-10-28T08:53:40.688Z,20.86
2022-10-28T08:54:40.654Z,20.80
2022-10-28T08:55:40.717Z,20.83
2022-10-28T08:56:41.096Z,20.87
2022-10-28T08:57:40.631Z,20.96
2022-10-28T08:58:40.631Z,21.13
2022-10-28T08:59:40.646Z,21.24
2022-10-28T09:00:40.596Z,21.34
2022-10-28T09:01:40.797Z,21.36
2022-10-28T09:02:40.641Z,21.59
2022-10-28T09:03:40.888Z,21.60
2022-10-28T09:04:40.577Z,21.76
2022-10-28T09:05:40.573Z,21.91
2022-10-28T09:06:40.535Z,22.10
2022-10-28T09:07:40.555Z,22.32
2022-10-28T09:08:40.565Z,22.53
2022-10-28T09:09:40.508Z,22.62
2022-10-28T09:10:40.558Z,22.72
2022-10-28T09:11:40.501Z,22.69
2022-10-28T09:12:40.521Z,22.46
2022-10-28T09:13:40.485Z,22.32
2022-10-28T09:14:40.497Z,22.38
2022-10-28T09:16:40.742Z,22.46
2022-10-28T09:17:40.428Z,22.60
2022-10-28T09:18:40.414Z,22.59
2022-10-28T09:19:40.403Z,22.52
2022-10-28T09:20:40.423Z,22.59
2022-10-28T09:21:40.405Z,22.78
2022-10-28T09:22:40.372Z,23.09
2022-10-28T09:23:40.386Z,23.49
2022-10-28T09:24:40.356Z,23.83
2022-10-28T09:25:40.375Z,23.64
2022-10-28T09:26:40.392Z,23.34
2022-10-28T09:27:40.346Z,23.20
2022-10-28T09:28:40.599Z,23.35
2022-10-28T09:29:43.306Z,23.24
2022-10-28T09:30:40.329Z,23.19
2022-10-28T09:31:40.302Z,23.20
2022-10-28T09:32:40.415Z,23.15
2022-10-28T09:33:40.316Z,23.05
2022-10-28T09:34:40.245Z,23.09
2022-10-28T09:35:40.273Z,23.39
2022-10-28T09:36:40.266Z,23.62
2022-10-28T09:37:40.271Z,23.70
2022-10-28T09:38:40.250Z,23.77
2022-10-28T09:39:40.216Z,23.40
2022-10-28T09:40:40.508Z,23.39
2022-10-28T09:41:40.184Z,23.35
2022-10-28T09:43:40.190Z,23.43
2022-10-28T09:44:40.199Z,23.62
2022-10-28T09:45:40.161Z,24.00
2022-10-28T09:46:40.162Z,24.29
2022-10-28T09:47:40.412Z,24.27
2022-10-28T09:48:40.116Z,24.26
2022-10-28T09:49:40.141Z,24.05
2022-10-28T09:50:40.124Z,23.83
2022-10-28T09:51:40.078Z,23.80
2022-10-28T09:52:40.071Z,23.68
2022-10-28T09:53:40.087Z,23.64
2022-10-28T09:54:40.043Z,23.72
2022-10-28T09:55:40.131Z,23.58
2022-10-28T09:56:40.081Z,23.65
2022-10-28T09:57:40.289Z,23.87
2022-10-28T09:58:39.999Z,23.87
2022-10-28T09:59:39.999Z,23.87
2022-10-28T10:00:40.316Z,23.62
2022-10-28T10:01:40.018Z,23.52
2022-10-28T10:02:40.191Z,23.57
2022-10-28T10:03:39.961Z,23.65
2022-10-28T10:04:39.946Z,23.79
2022-10-28T10:05:39.985Z,23.83
2022-10-28T10:06:40.014Z,23.89
2022-10-28T10:07:40.240Z,23.85
2022-10-28T10:08:40.046Z,23.90
2022-10-28T10:09:39.902Z,23.82
2022-10-28T10:10:40.007Z,23.64
2022-10-28T10:11:39.874Z,23.45
2022-10-28T10:12:39.873Z,23.38
2022-10-28T10:13:39.876Z,23.32
2022-10-28T10:14:40.130Z,23.23
2022-10-28T10:15:39.848Z,23.42
2022-10-28T10:16:39.817Z,23.70
2022-10-28T10:17:39.857Z,23.87
2022-10-28T10:18:39.801Z,24.04
2022-10-28T10:19:39.791Z,24.14
2022-10-28T10:20:39.849Z,23.86
2022-10-28T10:21:39.810Z,23.58
2022-10-28T10:22:39.951Z,23.71
2022-10-28T10:24:39.726Z,24.01
2022-10-28T10:25:39.736Z,24.01
2022-10-28T10:26:40.042Z,23.97
2022-10-28T10:27:39.752Z,24.04
2022-10-28T10:28:39.703Z,24.05
2022-10-28T10:29:39.677Z,24.29
2022-10-28T10:30:39.668Z,24.44
2022-10-28T10:31:39.673Z,24.50
2022-10-28T10:32:39.699Z,24.35
2022-10-28T10:33:39.644Z,24.32
2022-10-28T10:34:39.643Z,24.41
2022-10-28T10:35:39.634Z,24.44
2022-10-28T10:36:39.617Z,24.35
2022-10-28T10:37:39.607Z,24.47
2022-10-28T10:38:39.685Z,24.52
2022-10-28T10:39:39.598Z,24.37
2022-10-28T10:40:39.581Z,24.34
2022-10-28T10:41:39.571Z,24.07
2022-10-28T10:42:46.776Z,23.85
2022-10-28T10:43:39.605Z,23.82
2022-10-28T10:44:39.846Z,23.58
2022-10-28T10:45:39.531Z,23.57
2022-10-28T10:46:39.520Z,23.58
2022-10-28T10:47:39.514Z,23.76
2022-10-28T10:48:39.506Z,23.87
2022-10-28T10:49:39.517Z,24.02
2022-10-28T10:50:39.495Z,24.19
2022-10-28T10:51:40.945Z,24.41
2022-10-28T10:52:39.577Z,24.44
2022-10-28T10:53:39.524Z,24.63
2022-10-28T10:54:39.457Z,24.73
2022-10-28T10:55:39.468Z,24.57
2022-10-28T10:56:39.454Z,24.73
2022-10-28T10:57:39.401Z,24.91
2022-10-28T10:58:39.711Z,24.77
2022-10-28T10:59:39.369Z,24.76
2022-10-28T11:00:39.400Z,24.75
2022-10-28T11:01:39.577Z,24.75
2022-10-28T11:02:39.789Z,25.05
2022-10-28T11:03:39.348Z,25.28
2022-10-28T11:04:39.354Z,25.57
2022-10-28T11:05:39.618Z,25.50
2022-10-28T11:06:39.335Z,25.69
2022-10-28T11:07:39.334Z,25.75
2022-10-28T11:08:39.312Z,25.80
2022-10-28T11:09:39.279Z,25.90
2022-10-28T11:10:39.278Z,26.05
2022-10-28T11:11:39.260Z,26.11
2022-10-28T11:12:39.625Z,26.32
2022-10-28T11:13:42.244Z,26.61
2022-10-28T11:14:39.359Z,26.72
2022-10-28T11:15:39.228Z,26.49
2022-10-28T11:16:39.198Z,26.08
2022-10-28T11:17:39.200Z,25.71
2022-10-28T11:18:39.178Z,25.42
2022-10-28T11:19:39.468Z,25.34
2022-10-28T11:20:39.218Z,25.49
2022-10-28T11:21:39.152Z,25.74
2022-10-28T11:22:39.423Z,25.83
2022-10-28T11:23:39.166Z,25.84
2022-10-28T11:24:39.193Z,26.01
2022-10-28T11:25:39.222Z,26.18
2022-10-28T11:26:39.457Z,26.24
2022-10-28T11:27:39.083Z,26.09
2022-10-28T11:28:39.106Z,25.97
2022-10-28T11:29:39.090Z,26.04
2022-10-28T11:30:39.046Z,26.08
2022-10-28T11:31:39.080Z,26.11
2022-10-28T11:32:48.794Z,26.04
2022-10-28T11:33:39.311Z,25.77
2022-10-28T11:34:39.031Z,25.38
2022-10-28T11:35:39.026Z,25.25
2022-10-28T11:36:38.991Z,25.19
2022-10-28T11:37:39.016Z,25.24
2022-10-28T11:38:41.966Z,25.32
2022-10-28T11:39:38.969Z,25.44
2022-10-28T11:40:38.956Z,25.50
2022-10-28T11:41:38.953Z,25.61
2022-10-28T11:42:38.939Z,25.54
2022-10-28T11:43:38.936Z,25.67
2022-10-28T11:45:38.914Z,25.65
2022-10-28T11:46:38.886Z,25.71
2022-10-28T11:47:38.890Z,25.75
2022-10-28T11:48:38.870Z,25.28
2022-10-28T11:49:38.869Z,25.15
2022-10-28T11:50:38.876Z,25.09
2022-10-28T11:51:39.151Z,25.06
2022-10-28T11:52:42.693Z,24.95
2022-10-28T11:53:38.820Z,24.97
2022-10-28T11:54:38.823Z,24.83
2022-10-28T11:55:38.790Z,24.85
2022-10-28T11:56:38.843Z,25.00
2022-10-28T11:57:39.053Z,25.16
2022-10-28T11:58:40.223Z,25.28
2022-10-28T11:59:38.747Z,25.52
2022-10-28T12:00:38.769Z,25.83
2022-10-28T12:01:38.805Z,25.93
2022-10-28T12:02:38.949Z,25.90
2022-10-28T12:03:38.743Z,25.82
2022-10-28T12:04:38.714Z,25.72
2022-10-28T12:05:38.697Z,25.77
2022-10-28T12:06:38.694Z,25.77
2022-10-28T12:07:38.714Z,25.54
2022-10-28T12:08:38.794Z,25.67
2022-10-28T12:09:39.080Z,25.72
2022-10-28T12:10:38.645Z,25.74
2022-10-28T12:11:38.644Z,25.64
2022-10-28T12:12:41.295Z,25.35
2022-10-28T12:13:38.642Z,25.47
2022-10-28T12:14:38.686Z,25.31
2022-10-28T12:15:39.267Z,25.31
2022-10-28T12:16:38.912Z,25.28
2022-10-28T12:17:38.578Z,25.09
2022-10-28T12:18:38.605Z,25.12
2022-10-28T12:19:38.539Z,25.10
2022-10-28T12:20:38.582Z,25.12
2022-10-28T12:21:38.524Z,25.09
2022-10-28T12:22:38.532Z,25.07
2022-10-28T12:23:38.514Z,25.15
2022-10-28T12:24:38.593Z,25.31
2022-10-28T12:25:38.489Z,25.19
2022-10-28T12:26:38.569Z,25.06
2022-10-28T12:27:38.491Z,25.02
2022-10-28T12:28:38.485Z,25.06
2022-10-28T12:29:38.721Z,25.09
2022-10-28T12:30:38.451Z,25.02
2022-10-28T12:31:39.063Z,24.94
2022-10-28T12:32:38.445Z,24.92
2022-10-28T12:33:38.407Z,24.87
2022-10-28T12:34:38.435Z,24.76
2022-10-28T12:35:38.459Z,24.71
2022-10-28T12:36:38.674Z,24.71
2022-10-28T12:37:38.464Z,24.76
2022-10-28T12:38:38.396Z,24.87
2022-10-28T12:39:38.388Z,24.88
2022-10-28T12:40:38.351Z,24.94
2022-10-28T12:41:38.386Z,25.06
2022-10-28T12:42:38.328Z,25.06
2022-10-28T12:43:38.612Z,25.16
2022-10-28T12:44:38.407Z,25.20
2022-10-28T12:45:38.293Z,25.16
2022-10-28T12:46:38.468Z,25.17
2022-10-28T12:47:42.090Z,25.19
2022-10-28T12:48:38.350Z,25.12
2022-10-28T12:49:38.380Z,25.09
2022-10-28T12:50:38.793Z,25.13
2022-10-28T12:51:38.217Z,25.01
2022-10-28T12:52:38.258Z,25.09
2022-10-28T12:53:38.222Z,25.12
2022-10-28T12:54:38.220Z,25.25
2022-10-28T12:55:38.176Z,25.52
2022-10-28T12:56:38.510Z,25.82
2022-10-28T12:57:38.569Z,25.86